sensor_id;sensor_type;location;lat;lon;timestamp;P1;durP1;ratioP1;P2;durP2;ratioP2
15915;SDS011;8057;47.830;-3.870;2023-09-30T06:17:07;10.30;;;4.27;;
15915;SDS011;8057;47.830;-3.870;2023-09-30T06:22:07;14.30;;;4.00;;
15915;SDS011;8057;47.830;-3.870;2023-09-30T06:27:03;8.03;;;3.80;;
15915;SDS011;8057;47.830;-3.870;2023-09-30T06:59:00;7.13;;;3.40;;
15915;SDS011;8057;47.830;-3.870;2023-09-30T08:18:57;10.47;;;4.37;;
15915;SDS011;8057;47.830;-3.870;2023-09-30T08:24:16;8.57;;;4.10;;
15915;SDS011;8057;47.830;-3.870;2023-09-30T08:30:04;9.37;;;4.40;;
15915;SDS011;8057;47.830;-3.870;2023-09-30T08:51:19;9.63;;;4.90;;
15915;SDS011;8057;47.830;-3.870;2023-09-30T08:56:09;10.80;;;5.03;;
15915;SDS011;8057;47.830;-3.870;2023-09-30T09:00:58;11.50;;;4.67;;
15915;SDS011;8057;47.830;-3.870;2023-09-30T10:21:36;12.63;;;5.77;;
15915;SDS011;8057;47.830;-3.870;2023-09-30T10:26:23;13.10;;;6.23;;
15915;SDS011;8057;47.830;-3.870;2023-09-30T10:31:10;27.40;;;16.03;;
15915;SDS011;8057;47.830;-3.870;2023-09-30T10:35:42;15.70;;;8.30;;
15915;SDS011;8057;47.830;-3.870;2023-09-30T11:59:35;7.17;;;3.13;;
15915;SDS011;8057;47.830;-3.870;2023-09-30T12:08:58;12.33;;;4.27;;
15915;SDS011;8057;47.830;-3.870;2023-09-30T12:14:03;5.53;;;2.67;;
15915;SDS011;8057;47.830;-3.870;2023-09-30T12:18:34;4.07;;;2.40;;
15915;SDS011;8057;47.830;-3.870;2023-09-30T12:23:07;5.63;;;3.10;;
15915;SDS011;8057;47.830;-3.870;2023-09-30T12:27:58;4.27;;;2.60;;
15915;SDS011;8057;47.830;-3.870;2023-09-30T12:32:36;5.77;;;3.03;;
15915;SDS011;8057;47.830;-3.870;2023-09-30T12:37:05;3.90;;;2.67;;
15915;SDS011;8057;47.830;-3.870;2023-09-30T12:41:38;5.67;;;3.70;;
15915;SDS011;8057;47.830;-3.870;2023-09-30T12:46:10;6.83;;;3.87;;
15915;SDS011;8057;47.830;-3.870;2023-09-30T12:50:41;7.57;;;4.27;;
15915;SDS011;8057;47.830;-3.870;2023-09-30T12:55:09;7.83;;;3.83;;
15915;SDS011;8057;47.830;-3.870;2023-09-30T13:14:38;5.70;;;3.30;;
15915;SDS011;8057;47.830;-3.870;2023-09-30T13:19:07;6.67;;;3.93;;
15915;SDS011;8057;47.830;-3.870;2023-09-30T13:23:35;7.50;;;4.00;;
15915;SDS011;8057;47.830;-3.870;2023-09-30T13:28:05;8.17;;;4.87;;
15915;SDS011;8057;47.830;-3.870;2023-09-30T13:32:33;8.53;;;4.93;;
15915;SDS011;8057;47.830;-3.870;2023-09-30T13:37:18;7.45;;;4.30;;
15915;SDS011;8057;47.830;-3.870;2023-09-30T13:42:26;8.13;;;4.60;;
15915;SDS011;8057;47.830;-3.870;2023-09-30T13:47:12;7.20;;;5.27;;
15915;SDS011;8057;47.830;-3.870;2023-09-30T13:51:40;8.70;;;4.50;;
15915;SDS011;8057;47.830;-3.870;2023-09-30T13:56:36;6.40;;;4.33;;
15915;SDS011;8057;47.830;-3.870;2023-09-30T14:01:04;10.93;;;5.20;;
15915;SDS011;8057;47.830;-3.870;2023-09-30T14:05:35;7.13;;;4.67;;
15915;SDS011;8057;47.830;-3.870;2023-09-30T14:10:12;10.10;;;5.60;;
15915;SDS011;8057;47.830;-3.870;2023-09-30T14:14:53;10.13;;;5.63;;
15915;SDS011;8057;47.830;-3.870;2023-09-30T14:19:21;8.80;;;5.70;;
15915;SDS011;8057;47.830;-3.870;2023-09-30T14:23:51;8.23;;;5.57;;
15915;SDS011;8057;47.830;-3.870;2023-09-30T14:28:20;11.20;;;5.77;;
15915;SDS011;8057;47.830;-3.870;2023-09-30T14:32:48;11.10;;;6.13;;
15915;SDS011;8057;47.830;-3.870;2023-09-30T14:37:16;9.40;;;5.90;;
15915;SDS011;8057;47.830;-3.870;2023-09-30T14:41:47;9.80;;;5.97;;
15915;SDS011;8057;47.830;-3.870;2023-09-30T14:46:15;11.60;;;5.47;;
15915;SDS011;8057;47.830;-3.870;2023-09-30T14:50:49;10.40;;;6.40;;
15915;SDS011;8057;47.830;-3.870;2023-09-30T14:55:24;9.40;;;5.30;;
15915;SDS011;8057;47.830;-3.870;2023-09-30T14:59:54;11.27;;;6.43;;
15915;SDS011;8057;47.830;-3.870;2023-09-30T15:04:32;10.77;;;6.87;;
15915;SDS011;8057;47.830;-3.870;2023-09-30T15:09:01;12.33;;;6.47;;
15915;SDS011;8057;47.830;-3.870;2023-09-30T15:13:30;10.20;;;6.03;;
15915;SDS011;8057;47.830;-3.870;2023-09-30T15:17:59;8.93;;;6.10;;
15915;SDS011;8057;47.830;-3.870;2023-09-30T15:22:27;12.93;;;6.60;;
15915;SDS011;8057;47.830;-3.870;2023-09-30T15:26:55;10.80;;;5.47;;
15915;SDS011;8057;47.830;-3.870;2023-09-30T15:31:26;10.07;;;5.57;;
15915;SDS011;8057;47.830;-3.870;2023-09-30T15:35:57;11.13;;;6.87;;
15915;SDS011;8057;47.830;-3.870;2023-09-30T15:40:26;10.20;;;6.57;;
15915;SDS011;8057;47.830;-3.870;2023-09-30T15:44:54;9.43;;;5.73;;
15915;SDS011;8057;47.830;-3.870;2023-09-30T15:49:23;12.17;;;6.63;;
15915;SDS011;8057;47.830;-3.870;2023-09-30T15:53:52;9.63;;;5.90;;
15915;SDS011;8057;47.830;-3.870;2023-09-30T15:58:22;11.43;;;6.13;;
15915;SDS011;8057;47.830;-3.870;2023-09-30T16:02:52;11.33;;;5.77;;
15915;SDS011;8057;47.830;-3.870;2023-09-30T16:07:20;9.43;;;5.77;;
15915;SDS011;8057;47.830;-3.870;2023-09-30T16:25:43;12.10;;;6.17;;
15915;SDS011;8057;47.830;-3.870;2023-09-30T16:39:38;9.37;;;6.60;;
15915;SDS011;8057;47.830;-3.870;2023-09-30T16:44:07;12.83;;;6.73;;
15915;SDS011;8057;47.830;-3.870;2023-09-30T16:48:35;13.57;;;6.97;;
15915;SDS011;8057;47.830;-3.870;2023-09-30T16:53:03;10.70;;;6.60;;
15915;SDS011;8057;47.830;-3.870;2023-09-30T16:57:34;12.97;;;7.17;;
15915;SDS011;8057;47.830;-3.870;2023-09-30T17:02:07;13.67;;;6.70;;
15915;SDS011;8057;47.830;-3.870;2023-09-30T17:06:36;11.70;;;7.60;;
15915;SDS011;8057;47.830;-3.870;2023-09-30T17:11:05;11.30;;;6.90;;
15915;SDS011;8057;47.830;-3.870;2023-09-30T17:15:45;14.90;;;6.77;;
15915;SDS011;8057;47.830;-3.870;2023-09-30T17:25:39;16.37;;;6.73;;
15915;SDS011;8057;47.830;-3.870;2023-09-30T17:30:10;11.43;;;6.73;;
15915;SDS011;8057;47.830;-3.870;2023-09-30T17:35:01;14.70;;;7.17;;
15915;SDS011;8057;47.830;-3.870;2023-09-30T17:39:36;11.17;;;6.33;;
15915;SDS011;8057;47.830;-3.870;2023-09-30T17:44:09;13.60;;;7.20;;
15915;SDS011;8057;47.830;-3.870;2023-09-30T17:48:43;12.47;;;6.67;;
15915;SDS011;8057;47.830;-3.870;2023-09-30T17:53:28;12.20;;;7.07;;
15915;SDS011;8057;47.830;-3.870;2023-09-30T17:58:04;14.23;;;6.37;;
15915;SDS011;8057;47.830;-3.870;2023-09-30T18:02:36;13.43;;;6.77;;
15915;SDS011;8057;47.830;-3.870;2023-09-30T18:07:09;14.60;;;7.27;;
15915;SDS011;8057;47.830;-3.870;2023-09-30T18:11:51;13.70;;;7.27;;
15915;SDS011;8057;47.830;-3.870;2023-09-30T18:16:26;15.50;;;7.27;;
15915;SDS011;8057;47.830;-3.870;2023-09-30T18:21:00;13.77;;;7.23;;
15915;SDS011;8057;47.830;-3.870;2023-09-30T18:25:36;11.20;;;6.70;;
15915;SDS011;8057;47.830;-3.870;2023-09-30T18:30:18;13.00;;;7.00;;
15915;SDS011;8057;47.830;-3.870;2023-09-30T18:34:55;15.53;;;7.80;;
15915;SDS011;8057;47.830;-3.870;2023-09-30T18:39:34;13.03;;;7.60;;
15915;SDS011;8057;47.830;-3.870;2023-09-30T18:44:20;14.27;;;7.03;;
15915;SDS011;8057;47.830;-3.870;2023-09-30T18:49:06;13.40;;;7.20;;
15915;SDS011;8057;47.830;-3.870;2023-09-30T18:53:43;13.27;;;7.23;;
15915;SDS011;8057;47.830;-3.870;2023-09-30T18:58:22;11.67;;;7.20;;
15915;SDS011;8057;47.830;-3.870;2023-09-30T19:03:02;14.23;;;8.07;;
15915;SDS011;8057;47.830;-3.870;2023-09-30T19:07:48;14.83;;;7.60;;
15915;SDS011;8057;47.830;-3.870;2023-09-30T19:12:25;11.43;;;7.23;;
15915;SDS011;8057;47.830;-3.870;2023-09-30T19:17:10;13.60;;;7.33;;
15915;SDS011;8057;47.830;-3.870;2023-09-30T19:21:46;13.73;;;6.40;;
15915;SDS011;8057;47.830;-3.870;2023-09-30T19:26:31;15.50;;;7.73;;
15915;SDS011;8057;47.830;-3.870;2023-09-30T19:31:06;14.17;;;7.67;;
15915;SDS011;8057;47.830;-3.870;2023-09-30T19:35:46;13.63;;;7.20;;
15915;SDS011;8057;47.830;-3.870;2023-09-30T19:40:18;17.93;;;8.77;;
15915;SDS011;8057;47.830;-3.870;2023-09-30T19:44:54;15.40;;;7.57;;
15915;SDS011;8057;47.830;-3.870;2023-09-30T19:49:33;11.37;;;7.40;;
15915;SDS011;8057;47.830;-3.870;2023-09-30T19:54:32;15.57;;;7.53;;
15915;SDS011;8057;47.830;-3.870;2023-09-30T19:59:05;15.63;;;7.67;;
15915;SDS011;8057;47.830;-3.870;2023-09-30T20:03:39;15.23;;;7.07;;
15915;SDS011;8057;47.830;-3.870;2023-09-30T20:08:15;15.33;;;6.83;;
15915;SDS011;8057;47.830;-3.870;2023-09-30T20:13:00;11.00;;;7.03;;
